createdAt,value
2022-12-09T00:01:29.662Z,1.79
2022-12-09T00:03:56.265Z,1.68
2022-12-09T00:06:27.626Z,1.71
2022-12-09T00:08:55.463Z,1.62
2022-12-09T00:11:22.723Z,1.60
2022-12-09T00:13:50.182Z,1.58
2022-12-09T00:16:16.744Z,1.51
2022-12-09T00:18:43.791Z,1.48
2022-12-09T00:21:23.686Z,1.57
2022-12-09T00:23:51.285Z,1.56
2022-12-09T00:26:18.326Z,1.51
2022-12-09T00:28:45.009Z,1.50
2022-12-09T00:31:20.003Z,1.46
2022-12-09T00:33:46.465Z,1.46
2022-12-09T00:36:16.082Z,1.41
2022-12-09T00:38:43.094Z,1.31
2022-12-09T00:41:10.027Z,1.32
2022-12-09T00:43:36.564Z,1.34
2022-12-09T00:46:03.048Z,1.28
2022-12-09T00:48:29.915Z,1.34
2022-12-09T00:50:56.477Z,1.38
2022-12-09T00:53:22.954Z,1.37
2022-12-09T00:55:49.370Z,1.35
2022-12-09T00:58:16.075Z,1.35
2022-12-09T01:00:42.455Z,1.43
2022-12-09T01:03:13.139Z,1.49
2022-12-09T01:05:40.369Z,1.49
2022-12-09T01:08:07.478Z,1.50
2022-12-09T01:10:34.950Z,1.50
2022-12-09T01:13:01.348Z,1.52
2022-12-09T01:15:27.880Z,1.42
2022-12-09T01:17:54.322Z,1.51
2022-12-09T01:20:20.717Z,1.62
2022-12-09T01:22:47.599Z,1.53
2022-12-09T01:25:14.642Z,1.50
2022-12-09T01:27:41.350Z,1.54
2022-12-09T01:30:12.045Z,1.72
2022-12-09T01:32:38.744Z,1.75
2022-12-09T01:35:05.520Z,1.82
2022-12-09T01:37:33.146Z,1.66
2022-12-09T01:39:59.878Z,1.77
2022-12-09T01:42:26.791Z,1.72
2022-12-09T01:45:21.520Z,1.75
2022-12-09T01:47:49.707Z,1.90
2022-12-09T01:50:16.811Z,2.02
2022-12-09T01:52:44.702Z,1.99
2022-12-09T01:55:11.320Z,2.08
2022-12-09T01:57:46.151Z,2.09
2022-12-09T02:00:13.658Z,2.10
2022-12-09T02:02:43.876Z,1.98
2022-12-09T02:05:10.572Z,2.02
2022-12-09T02:07:37.314Z,2.00
2022-12-09T02:10:06.470Z,1.89
2022-12-09T02:12:36.395Z,1.86
2022-12-09T02:15:21.750Z,1.79
2022-12-09T02:17:54.671Z,1.84
2022-12-09T02:20:50.296Z,1.99
2022-12-09T02:23:25.120Z,2.05
2022-12-09T02:26:08.052Z,1.98
2022-12-09T02:28:46.101Z,1.96
2022-12-09T02:31:36.794Z,2.05
2022-12-09T02:34:11.612Z,2.03
2022-12-09T02:37:16.427Z,2.10
2022-12-09T02:40:18.690Z,2.16
2022-12-09T02:42:46.871Z,2.03
2022-12-09T02:45:14.153Z,2.15
2022-12-09T02:47:44.811Z,2.07
2022-12-09T02:50:14.467Z,2.18
2022-12-09T02:52:42.827Z,2.07
2022-12-09T02:55:10.100Z,2.05
2022-12-09T02:57:38.428Z,2.03
2022-12-09T03:00:06.798Z,2.05
2022-12-09T03:02:39.991Z,2.03
2022-12-09T03:05:22.087Z,2.00
2022-12-09T03:07:56.930Z,1.97
2022-12-09T03:10:33.268Z,2.03
2022-12-09T03:13:09.719Z,2.13
2022-12-09T03:15:37.769Z,2.11
2022-12-09T03:18:07.312Z,2.01
2022-12-09T03:20:36.979Z,1.98
2022-12-09T03:23:05.737Z,1.94
2022-12-09T03:25:39.796Z,1.76
2022-12-09T03:28:10.540Z,1.65
2022-12-09T03:30:39.708Z,1.69
2022-12-09T03:33:07.132Z,1.78
2022-12-09T03:35:36.447Z,1.89
2022-12-09T03:38:05.509Z,1.93
2022-12-09T03:40:32.994Z,1.95
2022-12-09T03:43:05.959Z,2.02
2022-12-09T03:45:32.537Z,2.07
2022-12-09T03:47:59.485Z,2.01
2022-12-09T03:50:29.459Z,2.00
2022-12-09T03:53:05.180Z,2.05
2022-12-09T03:55:52.585Z,2.08
2022-12-09T03:58:19.229Z,2.18
2022-12-09T04:00:46.292Z,2.20
2022-12-09T04:03:14.766Z,2.03
2022-12-09T04:05:43.242Z,2.14
2022-12-09T04:08:10.274Z,2.03
2022-12-09T04:10:36.745Z,1.93
2022-12-09T04:13:03.225Z,1.91
2022-12-09T04:15:29.637Z,1.80
2022-12-09T04:17:56.561Z,1.92
2022-12-09T04:20:23.036Z,1.96
2022-12-09T04:22:49.404Z,1.93
2022-12-09T04:25:15.886Z,2.05
2022-12-09T04:27:42.264Z,1.99
2022-12-09T04:30:09.392Z,1.86
2022-12-09T04:32:36.434Z,1.88
2022-12-09T04:35:02.997Z,1.90
2022-12-09T04:37:29.552Z,1.81
2022-12-09T04:39:56.347Z,1.77
2022-12-09T04:42:22.756Z,1.80
2022-12-09T04:44:49.114Z,1.77
2022-12-09T04:47:16.004Z,1.77
2022-12-09T04:49:42.807Z,1.69
2022-12-09T04:52:09.288Z,1.62
2022-12-09T04:54:35.695Z,1.51
2022-12-09T04:57:02.454Z,1.54
2022-12-09T04:59:30.906Z,1.51
2022-12-09T05:01:57.537Z,1.51
2022-12-09T05:04:24.775Z,1.52
2022-12-09T05:06:51.392Z,1.47
2022-12-09T05:09:18.286Z,1.42
2022-12-09T05:11:44.827Z,1.37
2022-12-09T05:14:11.369Z,1.30
2022-12-09T05:16:38.004Z,1.33
2022-12-09T05:19:04.773Z,1.45
2022-12-09T05:21:31.410Z,1.45
2022-12-09T05:23:58.273Z,1.56
2022-12-09T05:26:24.974Z,1.51
2022-12-09T05:28:51.854Z,1.46
2022-12-09T05:31:21.105Z,1.51
2022-12-09T05:33:48.794Z,1.47
2022-12-09T05:36:17.205Z,1.31
2022-12-09T05:38:44.396Z,1.38
2022-12-09T05:41:11.082Z,1.37
2022-12-09T05:43:37.726Z,1.36
2022-12-09T05:46:05.179Z,1.40
2022-12-09T05:48:32.596Z,1.52
2022-12-09T05:51:04.349Z,1.58
2022-12-09T05:53:31.611Z,1.55
2022-12-09T05:55:58.398Z,1.50
2022-12-09T05:58:25.206Z,1.43
2022-12-09T06:00:52.049Z,1.40
2022-12-09T06:03:18.895Z,1.41
2022-12-09T06:05:45.981Z,1.43
2022-12-09T06:08:12.729Z,1.46
2022-12-09T06:10:41.185Z,1.43
2022-12-09T06:13:08.534Z,1.48
2022-12-09T06:15:35.329Z,1.49
2022-12-09T06:18:02.139Z,1.43
2022-12-09T06:20:29.185Z,1.49
2022-12-09T06:22:55.916Z,1.50
2022-12-09T06:25:23.267Z,1.45
2022-12-09T06:27:49.789Z,1.52
2022-12-09T06:30:16.739Z,1.63
2022-12-09T06:32:43.283Z,1.71
2022-12-09T06:35:10.923Z,1.83
2022-12-09T06:37:37.613Z,1.86
2022-12-09T06:40:05.576Z,1.81
2022-12-09T06:42:32.052Z,1.74
2022-12-09T06:44:58.783Z,1.72
2022-12-09T06:47:25.675Z,1.71
2022-12-09T06:49:52.384Z,1.77
2022-12-09T06:52:19.064Z,1.73
2022-12-09T06:54:45.575Z,1.88
2022-12-09T06:57:12.096Z,1.77
2022-12-09T06:59:38.740Z,1.75
2022-12-09T07:02:05.561Z,1.63
2022-12-09T07:04:32.329Z,1.73
2022-12-09T07:06:59.115Z,1.66
2022-12-09T07:09:26.059Z,1.73
2022-12-09T07:11:52.892Z,1.88
2022-12-09T07:14:20.725Z,1.79
2022-12-09T07:16:48.066Z,1.76
2022-12-09T07:19:18.074Z,1.82
2022-12-09T07:21:44.963Z,1.89
2022-12-09T07:24:12.668Z,1.92
2022-12-09T07:26:39.430Z,1.86
2022-12-09T07:29:07.404Z,1.99
2022-12-09T07:31:34.634Z,2.01
2022-12-09T07:34:02.000Z,1.88
2022-12-09T07:36:30.337Z,1.82
2022-12-09T07:38:59.340Z,1.95
2022-12-09T07:41:25.932Z,2.00
2022-12-09T07:43:52.908Z,2.02
2022-12-09T07:46:20.889Z,2.01
2022-12-09T07:48:48.294Z,2.12
2022-12-09T07:51:15.245Z,2.16
2022-12-09T07:53:41.924Z,2.15
2022-12-09T07:56:11.811Z,2.05
2022-12-09T07:58:38.957Z,2.15
2022-12-09T08:01:13.415Z,2.17
2022-12-09T08:03:40.515Z,2.17
2022-12-09T08:06:09.256Z,2.06
2022-12-09T08:08:35.960Z,2.02
2022-12-09T08:11:11.485Z,2.10
2022-12-09T08:13:38.505Z,2.17
2022-12-09T08:16:07.123Z,2.27
2022-12-09T08:18:34.971Z,2.15
2022-12-09T08:21:14.020Z,2.19
2022-12-09T08:23:41.127Z,2.15
2022-12-09T08:26:10.412Z,2.22
2022-12-09T08:28:37.226Z,2.30
2022-12-09T08:31:15.507Z,2.27
2022-12-09T08:33:42.485Z,2.29
2022-12-09T08:36:12.999Z,2.34
2022-12-09T08:38:40.042Z,2.49
2022-12-09T08:41:13.238Z,2.39
2022-12-09T08:43:40.759Z,2.42
2022-12-09T08:46:07.988Z,2.46
2022-12-09T08:48:39.048Z,2.60
2022-12-09T08:51:06.466Z,2.65
2022-12-09T08:53:32.981Z,2.68
2022-12-09T08:55:59.945Z,2.73
2022-12-09T08:58:26.491Z,2.69
2022-12-09T09:00:53.403Z,2.79
2022-12-09T09:03:20.345Z,2.87
2022-12-09T09:05:47.659Z,2.88
2022-12-09T09:08:14.316Z,2.87
2022-12-09T09:10:41.015Z,2.80
2022-12-09T09:13:08.311Z,2.95
2022-12-09T09:15:35.066Z,3.24
2022-12-09T09:18:02.121Z,3.39
2022-12-09T09:20:28.909Z,3.37
2022-12-09T09:23:02.600Z,3.32
2022-12-09T09:25:29.967Z,3.25
2022-12-09T09:27:56.575Z,3.33
2022-12-09T09:30:23.538Z,3.46
2022-12-09T09:32:50.313Z,3.64
2022-12-09T09:35:17.258Z,3.67
2022-12-09T09:37:43.909Z,3.35
2022-12-09T09:40:10.837Z,3.60
2022-12-09T09:42:45.358Z,3.38
2022-12-09T09:45:15.874Z,3.59
2022-12-09T09:47:55.387Z,3.71
2022-12-09T09:50:31.937Z,3.27
2022-12-09T09:52:59.267Z,2.88
2022-12-09T09:55:40.759Z,2.91
2022-12-09T09:58:17.078Z,3.02
2022-12-09T10:01:09.536Z,3.11
2022-12-09T10:04:00.713Z,2.90
2022-12-09T10:06:43.517Z,2.69
2022-12-09T10:09:39.297Z,2.82
2022-12-09T10:12:15.469Z,2.97
2022-12-09T10:14:48.486Z,3.09
2022-12-09T10:17:20.916Z,3.30
2022-12-09T10:19:50.353Z,3.48
2022-12-09T10:22:22.071Z,3.53
2022-12-09T10:25:00.173Z,3.46
2022-12-09T10:27:38.194Z,3.49
2022-12-09T10:30:12.242Z,3.47
2022-12-09T10:32:40.272Z,3.41
2022-12-09T10:35:25.011Z,3.49
2022-12-09T10:37:54.205Z,3.37
2022-12-09T10:40:41.577Z,3.35
2022-12-09T10:43:44.215Z,3.19
2022-12-09T10:46:19.646Z,3.21
2022-12-09T10:48:46.880Z,3.58
2022-12-09T10:51:28.251Z,3.37
2022-12-09T10:53:59.046Z,3.29
2022-12-09T10:56:37.819Z,3.29
2022-12-09T10:59:10.624Z,3.37
2022-12-09T11:01:55.710Z,3.34
2022-12-09T11:04:34.228Z,3.32
2022-12-09T11:07:15.725Z,3.26
2022-12-09T11:09:43.739Z,3.33
2022-12-09T11:12:17.584Z,3.22
2022-12-09T11:14:58.400Z,3.03
2022-12-09T11:17:28.329Z,3.04
2022-12-09T11:20:17.627Z,2.99
2022-12-09T11:22:45.923Z,3.06
2022-12-09T11:25:15.807Z,3.08
2022-12-09T11:27:49.587Z,2.88
2022-12-09T11:30:35.068Z,2.81
2022-12-09T11:33:14.345Z,2.85
2022-12-09T11:35:44.144Z,3.10
2022-12-09T11:38:41.344Z,3.22
2022-12-09T11:41:43.259Z,3.24
2022-12-09T11:44:23.738Z,3.33
2022-12-09T11:47:00.331Z,3.73
2022-12-09T11:49:27.787Z,3.83
2022-12-09T11:52:01.936Z,3.81
2022-12-09T11:54:40.120Z,3.93
2022-12-09T11:57:21.168Z,3.69
2022-12-09T11:59:50.777Z,3.78
2022-12-09T12:02:37.508Z,3.54
2022-12-09T12:05:21.987Z,3.49
2022-12-09T12:08:00.861Z,3.26
2022-12-09T12:10:31.476Z,3.24
2022-12-09T12:13:00.937Z,3.10
2022-12-09T12:15:40.763Z,2.93
2022-12-09T12:18:13.402Z,3.02
2022-12-09T12:21:03.292Z,3.09
2022-12-09T12:24:20.157Z,2.92
2022-12-09T12:26:59.032Z,3.06
2022-12-09T12:29:34.948Z,3.19
2022-12-09T12:32:10.481Z,2.97
2022-12-09T12:34:49.074Z,3.03
2022-12-09T12:37:29.886Z,2.85
2022-12-09T12:40:37.246Z,2.90
2022-12-09T12:43:48.556Z,2.78
2022-12-09T12:46:29.945Z,2.87
2022-12-09T12:49:18.682Z,2.94
2022-12-09T12:51:54.662Z,2.83
2022-12-09T12:54:36.492Z,2.68
2022-12-09T12:57:11.696Z,2.74
2022-12-09T12:59:50.121Z,2.54
2022-12-09T13:02:28.691Z,2.70
2022-12-09T13:05:00.799Z,2.87
2022-12-09T13:07:45.747Z,2.90
2022-12-09T13:10:42.660Z,2.75
2022-12-09T13:13:18.664Z,2.91
2022-12-09T13:15:58.099Z,2.71
2022-12-09T13:18:36.963Z,2.68
2022-12-09T13:21:05.428Z,2.79
2022-12-09T13:23:40.999Z,2.86
2022-12-09T13:26:10.577Z,2.98
2022-12-09T13:28:46.823Z,3.00
2022-12-09T13:31:13.493Z,3.02
2022-12-09T13:33:44.009Z,2.88
2022-12-09T13:36:21.849Z,3.10
2022-12-09T13:38:48.611Z,2.89
2022-12-09T13:41:27.245Z,2.71
2022-12-09T13:43:54.683Z,2.81
2022-12-09T13:46:22.819Z,2.78
2022-12-09T13:48:49.621Z,2.59
2022-12-09T13:51:17.350Z,2.45
2022-12-09T13:53:50.762Z,2.17
2022-12-09T13:56:17.075Z,2.18
2022-12-09T13:59:11.497Z,2.29
2022-12-09T14:02:01.029Z,2.39
2022-12-09T14:04:33.765Z,2.24
2022-12-09T14:07:10.069Z,1.93
2022-12-09T14:09:46.812Z,2.09
2022-12-09T14:12:43.931Z,1.90
2022-12-09T14:15:25.672Z,1.69
2022-12-09T14:17:51.939Z,1.52
2022-12-09T14:20:21.271Z,1.21
2022-12-09T14:23:07.938Z,0.78
2022-12-09T14:25:34.186Z,0.77
2022-12-09T14:28:09.586Z,0.67
2022-12-09T14:30:52.915Z,0.67
2022-12-09T14:33:34.695Z,0.47
2022-12-09T14:36:13.241Z,0.60
2022-12-09T14:39:16.138Z,0.63
2022-12-09T14:41:58.578Z,0.96
2022-12-09T14:44:32.906Z,0.94
2022-12-09T14:47:32.341Z,0.84
2022-12-09T14:50:09.731Z,0.99
2022-12-09T14:52:36.504Z,0.69
2022-12-09T14:55:06.604Z,0.57
2022-12-09T14:58:00.619Z,0.50
2022-12-09T15:00:37.002Z,0.76
2022-12-09T15:03:36.895Z,0.55
2022-12-09T15:06:06.319Z,0.51
2022-12-09T15:08:38.047Z,0.36
2022-12-09T15:11:26.588Z,0.28
2022-12-09T15:13:55.382Z,0.52
2022-12-09T15:16:24.558Z,0.39
2022-12-09T15:18:51.822Z,0.44
2022-12-09T15:21:29.983Z,0.33
2022-12-09T15:23:57.584Z,0.46
2022-12-09T15:26:29.376Z,0.57
2022-12-09T15:28:57.333Z,0.34
2022-12-09T15:31:26.810Z,0.54
2022-12-09T15:33:58.634Z,0.61
2022-12-09T15:36:35.160Z,0.49
2022-12-09T15:39:11.491Z,0.35
2022-12-09T15:42:02.107Z,0.58
2022-12-09T15:44:32.841Z,0.96
2022-12-09T15:46:59.863Z,0.86
2022-12-09T15:49:29.835Z,0.72
2022-12-09T15:51:56.504Z,0.83
2022-12-09T15:54:26.694Z,0.82
2022-12-09T15:57:01.862Z,0.91
2022-12-09T15:59:35.331Z,0.95
2022-12-09T16:02:01.906Z,0.74
2022-12-09T16:04:31.919Z,0.82
2022-12-09T16:07:07.868Z,0.74
2022-12-09T16:09:34.352Z,0.77
2022-12-09T16:12:00.788Z,0.67
2022-12-09T16:14:41.429Z,0.60
2022-12-09T16:17:28.512Z,0.80
2022-12-09T16:19:55.097Z,0.88
2022-12-09T16:22:27.867Z,0.84
2022-12-09T16:25:14.538Z,0.71
2022-12-09T16:27:44.702Z,0.73
2022-12-09T16:30:17.403Z,0.62
2022-12-09T16:32:54.534Z,0.49
2022-12-09T16:35:40.835Z,0.42
2022-12-09T16:38:10.214Z,0.41
2022-12-09T16:40:45.609Z,0.40
2022-12-09T16:43:18.812Z,0.20
2022-12-09T16:45:50.073Z,0.41
2022-12-09T16:48:17.555Z,0.45
2022-12-09T16:51:11.786Z,0.12
2022-12-09T16:53:49.833Z,0.13
2022-12-09T16:56:19.566Z,0.21
2022-12-09T16:58:46.460Z,0.26
2022-12-09T17:01:14.778Z,0.21
2022-12-09T17:03:45.598Z,0.09
2022-12-09T17:06:17.607Z,0.04
2022-12-09T17:08:44.610Z,-0.10
2022-12-09T17:11:11.455Z,0.04
2022-12-09T17:13:38.299Z,0.03
2022-12-09T17:16:05.800Z,0.15
2022-12-09T17:18:32.676Z,0.22
2022-12-09T17:21:01.061Z,0.31
2022-12-09T17:23:27.568Z,0.42
2022-12-09T17:25:58.452Z,0.34
2022-12-09T17:28:29.873Z,0.43
2022-12-09T17:30:57.646Z,0.47
2022-12-09T17:33:28.686Z,0.46
2022-12-09T17:35:55.597Z,0.42
2022-12-09T17:38:22.221Z,0.47
2022-12-09T17:40:49.036Z,0.61
2022-12-09T17:43:15.405Z,0.45
2022-12-09T17:45:42.489Z,0.56
2022-12-09T17:48:09.005Z,0.55
2022-12-09T17:50:37.826Z,0.59
2022-12-09T17:53:04.195Z,0.67
2022-12-09T17:55:30.931Z,0.80
2022-12-09T17:57:57.377Z,0.86
2022-12-09T18:00:23.930Z,0.78
2022-12-09T18:02:50.279Z,0.75
2022-12-09T18:05:16.640Z,0.67
2022-12-09T18:07:43.094Z,0.71
2022-12-09T18:10:10.594Z,0.71
2022-12-09T18:12:37.210Z,0.78
2022-12-09T18:15:04.018Z,0.63
2022-12-09T18:17:32.440Z,0.47
2022-12-09T18:19:58.784Z,0.29
2022-12-09T18:22:25.228Z,0.16
2022-12-09T18:24:51.561Z,0.30
2022-12-09T18:27:17.898Z,0.33
2022-12-09T18:29:44.232Z,0.29
2022-12-09T18:32:10.619Z,0.38
2022-12-09T18:34:36.993Z,0.30
2022-12-09T18:37:03.360Z,0.38
2022-12-09T18:39:29.863Z,0.38
2022-12-09T18:41:56.194Z,0.48
2022-12-09T18:44:22.612Z,0.46
2022-12-09T18:46:50.019Z,0.53
2022-12-09T18:49:21.752Z,0.43
2022-12-09T18:51:49.204Z,0.44
2022-12-09T18:54:18.741Z,0.48
2022-12-09T18:56:45.110Z,0.62
2022-12-09T18:59:12.109Z,0.65
2022-12-09T19:01:41.721Z,0.73
2022-12-09T19:04:14.095Z,0.56
2022-12-09T19:06:41.411Z,0.44
2022-12-09T19:09:11.033Z,0.37
2022-12-09T19:11:39.083Z,0.33
2022-12-09T19:14:06.639Z,0.35
2022-12-09T19:16:33.258Z,0.36
2022-12-09T19:19:05.424Z,0.32
2022-12-09T19:21:34.218Z,0.11
2022-12-09T19:24:00.686Z,0.14
2022-12-09T19:26:29.505Z,-0.08
2022-12-09T19:28:58.314Z,-0.21
2022-12-09T19:31:30.301Z,-0.18
2022-12-09T19:33:58.460Z,-0.24
2022-12-09T19:36:25.889Z,-0.22
2022-12-09T19:38:52.601Z,-0.21
2022-12-09T19:41:19.270Z,-0.06
2022-12-09T19:43:46.098Z,0.05
2022-12-09T19:46:14.481Z,0.09
2022-12-09T19:48:44.148Z,0.05
2022-12-09T19:51:15.396Z,-0.14
2022-12-09T19:53:42.704Z,-0.36
2022-12-09T19:56:12.335Z,-0.40
2022-12-09T19:58:40.342Z,-0.44
2022-12-09T20:01:11.963Z,-0.54
2022-12-09T20:03:39.648Z,-0.58
2022-12-09T20:06:07.735Z,-0.58
2022-12-09T20:08:34.248Z,-0.42
2022-12-09T20:11:00.702Z,-0.42
2022-12-09T20:13:31.662Z,-0.53
2022-12-09T20:16:03.631Z,-0.40
2022-12-09T20:18:30.019Z,-0.44
2022-12-09T20:21:00.614Z,-0.56
2022-12-09T20:23:27.049Z,-0.55
2022-12-09T20:25:53.851Z,-0.76
2022-12-09T20:28:20.599Z,-0.83
2022-12-09T20:30:46.967Z,-0.74
2022-12-09T20:33:13.341Z,-0.81
2022-12-09T20:35:39.726Z,-0.76
2022-12-09T20:38:06.473Z,-0.88
2022-12-09T20:40:40.379Z,-0.76
2022-12-09T20:43:07.206Z,-0.81
2022-12-09T20:45:33.574Z,-0.89
2022-12-09T20:47:59.970Z,-0.92
2022-12-09T20:50:26.324Z,-0.85
2022-12-09T20:52:52.761Z,-0.93
2022-12-09T20:55:20.438Z,-0.96
2022-12-09T20:57:46.780Z,-0.98
2022-12-09T21:00:13.394Z,-0.94
2022-12-09T21:02:40.046Z,-0.85
2022-12-09T21:05:08.202Z,-0.86
2022-12-09T21:07:34.803Z,-0.80
2022-12-09T21:10:01.323Z,-0.75
2022-12-09T21:12:27.703Z,-0.94
2022-12-09T21:14:54.071Z,-1.23
2022-12-09T21:17:20.546Z,-1.18
2022-12-09T21:19:47.171Z,-1.13
2022-12-09T21:22:13.570Z,-0.96
2022-12-09T21:24:39.936Z,-0.76
2022-12-09T21:27:06.318Z,-0.63
2022-12-09T21:29:32.728Z,-0.56
2022-12-09T21:32:00.245Z,-0.49
2022-12-09T21:34:27.135Z,-0.56
2022-12-09T21:36:53.551Z,-0.87
2022-12-09T21:39:19.972Z,-0.86
2022-12-09T21:41:46.447Z,-0.84
2022-12-09T21:44:18.335Z,-0.69
2022-12-09T21:46:45.039Z,-0.54
2022-12-09T21:49:11.787Z,-0.56
2022-12-09T21:51:38.198Z,-0.52
2022-12-09T21:54:04.747Z,-0.52
2022-12-09T21:56:33.070Z,-0.53
2022-12-09T21:58:59.954Z,-0.54
2022-12-09T22:01:34.347Z,-0.69
2022-12-09T22:04:02.554Z,-0.77
2022-12-09T22:06:29.411Z,-0.78
2022-12-09T22:08:58.152Z,-0.55
2022-12-09T22:11:26.946Z,-0.59
2022-12-09T22:13:58.323Z,-0.56
2022-12-09T22:16:28.343Z,-0.40
2022-12-09T22:18:56.546Z,-0.30
2022-12-09T22:21:25.912Z,-0.27
2022-12-09T22:23:59.543Z,-0.25
2022-12-09T22:26:26.292Z,-0.61
2022-12-09T22:28:53.184Z,-0.54
2022-12-09T22:31:22.157Z,-0.41
2022-12-09T22:33:55.151Z,-0.39
2022-12-09T22:36:22.532Z,-0.43
2022-12-09T22:38:48.989Z,-0.43
2022-12-09T22:41:18.513Z,-0.37
2022-12-09T22:43:45.457Z,-0.30
2022-12-09T22:46:17.475Z,-0.32
2022-12-09T22:48:44.048Z,-0.17
2022-12-09T22:51:11.674Z,-0.09
2022-12-09T22:53:38.804Z,0.06
2022-12-09T22:56:05.907Z,0.14
2022-12-09T22:58:33.729Z,-0.06
2022-12-09T23:01:00.139Z,-0.08
2022-12-09T23:03:26.563Z,0.05
2022-12-09T23:05:53.444Z,0.09
2022-12-09T23:08:20.096Z,0.13
2022-12-09T23:10:46.504Z,0.17
2022-12-09T23:13:12.883Z,-0.48
2022-12-09T23:15:39.390Z,-0.36
2022-12-09T23:18:06.139Z,-0.39
2022-12-09T23:20:32.521Z,-0.10
2022-12-09T23:22:58.900Z,-0.07
2022-12-09T23:25:25.255Z,-0.04
2022-12-09T23:27:51.923Z,-0.04
2022-12-09T23:30:18.379Z,-0.17
2022-12-09T23:32:44.761Z,0.01
2022-12-09T23:35:11.338Z,0.10
2022-12-09T23:37:37.725Z,0.08
2022-12-09T23:40:05.427Z,0.01
2022-12-09T23:42:31.928Z,-0.04
2022-12-09T23:44:58.305Z,0.05
2022-12-09T23:47:24.716Z,-0.07
2022-12-09T23:49:51.084Z,-0.13
2022-12-09T23:52:17.968Z,0.06
2022-12-09T23:54:44.332Z,0.15
2022-12-09T23:57:10.688Z,0.17
2022-12-09T23:59:37.187Z,0.19
